Time;durP1;ratioP1;P1;durP2;ratioP2;P2;SDS_P1;SDS_P2;PMS_P1;PMS_P2;Temp;Humidity;BMP_temperature;BMP_pressure;BME280_temperature;BME280_humidity;BME280_pressure;Samples;Min_cycle;Max_cycle;Signal;HPM_P1;HPM_P2
2019/11/28 00:01:12;;;;;;;1.09;1.07;;;;;;;20.54;46.54;98596.42;;;;-52
2019/11/28 00:04:12;;;;;;;0.95;0.95;;;;;;;20.52;46.50;98587.84;;;;-53
2019/11/28 00:07:12;;;;;;;0.89;0.89;;;;;;;20.51;46.55;98582.80;;;;-53
2019/11/28 00:10:12;;;;;;;0.91;0.91;;;;;;;20.50;46.53;98582.29;;;;-53
2019/11/28 00:13:12;;;;;;;0.90;0.90;;;;;;;20.49;46.57;98580.67;;;;-52
2019/11/28 00:16:12;;;;;;;0.90;0.90;;;;;;;20.48;46.55;98576.95;;;;-52
2019/11/28 00:19:12;;;;;;;1.26;1.10;;;;;;;20.47;46.58;98572.78;;;;-53
2019/11/28 00:22:12;;;;;;;1.04;1.02;;;;;;;20.45;46.60;98571.84;;;;-52
2019/11/28 00:26:12;;;;;;;1.11;1.01;;;;;;;20.44;46.58;98575.02;;;;-54
2019/11/28 00:29:12;;;;;;;1.19;1.02;;;;;;;20.43;46.59;98570.96;;;;-53
2019/11/28 00:34:12;;;;;;;1.11;1.05;;;;;;;20.40;46.62;98571.62;;;;-53
2019/11/28 00:37:12;;;;;;;0.93;0.90;;;;;;;20.39;46.61;98568.77;;;;-53
2019/11/28 00:41:12;;;;;;;1.01;0.90;;;;;;;20.37;46.65;98569.15;;;;-52
2019/11/28 00:44:12;;;;;;;1.00;1.00;;;;;;;20.36;46.63;98577.36;;;;-52
2019/11/28 00:47:12;;;;;;;1.00;1.00;;;;;;;20.34;46.61;98573.06;;;;-52
2019/11/28 00:51:12;;;;;;;1.00;1.00;;;;;;;20.33;46.64;98574.06;;;;-53
2019/11/28 00:57:12;;;;;;;0.90;0.90;;;;;;;20.32;46.62;98576.80;;;;-52
2019/11/28 01:00:12;;;;;;;0.93;0.93;;;;;;;20.31;46.64;98575.87;;;;-53
2019/11/28 01:03:12;;;;;;;0.90;0.90;;;;;;;20.29;46.67;98579.32;;;;-53
2019/11/28 01:07:12;;;;;;;0.91;0.91;;;;;;;20.27;46.67;98578.77;;;;-53
2019/11/28 01:11:13;;;;;;;0.99;0.99;;;;;;;20.26;46.67;98577.08;;;;-52
2019/11/28 01:14:12;;;;;;;1.15;1.05;;;;;;;20.25;46.65;98585.72;;;;-53
2019/11/28 01:19:12;;;;;;;1.03;0.93;;;;;;;20.24;46.67;98587.45;;;;-52
2019/11/28 01:25:12;;;;;;;1.06;1.00;;;;;;;20.22;46.68;98589.55;;;;-52
2019/11/28 01:29:12;;;;;;;1.01;1.01;;;;;;;20.20;46.71;98595.64;;;;-52
2019/11/28 01:32:12;;;;;;;1.07;1.06;;;;;;;20.19;46.72;98599.80;;;;-54
2019/11/28 01:35:12;;;;;;;0.95;0.95;;;;;;;20.19;46.70;98602.25;;;;-52
2019/11/28 01:40:12;;;;;;;1.01;0.95;;;;;;;20.17;46.74;98605.49;;;;-53
2019/11/28 01:43:12;;;;;;;1.03;1.00;;;;;;;20.16;46.74;98603.13;;;;-52
2019/11/28 01:46:12;;;;;;;0.90;0.90;;;;;;;20.14;46.74;98606.87;;;;-52
2019/11/28 01:49:12;;;;;;;0.98;0.98;;;;;;;20.13;46.77;98603.45;;;;-52
2019/11/28 01:52:12;;;;;;;0.90;0.90;;;;;;;20.12;46.75;98597.56;;;;-52
2019/11/28 01:55:12;;;;;;;1.00;1.00;;;;;;;20.11;46.78;98594.03;;;;-52
2019/11/28 01:58:12;;;;;;;1.04;1.00;;;;;;;20.11;46.77;98596.03;;;;-53
2019/11/28 02:01:12;;;;;;;0.90;0.90;;;;;;;20.09;46.80;98589.72;;;;-52
2019/11/28 02:04:12;;;;;;;0.93;0.93;;;;;;;20.09;46.80;98592.66;;;;-53
2019/11/28 02:07:12;;;;;;;1.00;1.00;;;;;;;20.09;46.80;98597.44;;;;-52
2019/11/28 02:10:12;;;;;;;0.90;0.90;;;;;;;20.08;46.81;98593.73;;;;-53
2019/11/28 02:13:12;;;;;;;0.97;0.97;;;;;;;20.06;46.81;98593.80;;;;-52
2019/11/28 02:16:12;;;;;;;1.01;1.00;;;;;;;20.06;46.80;98591.20;;;;-52
2019/11/28 02:19:12;;;;;;;0.91;0.91;;;;;;;20.04;46.84;98594.78;;;;-52
2019/11/28 02:22:12;;;;;;;0.99;0.97;;;;;;;20.04;46.84;98595.96;;;;-52
2019/11/28 02:25:12;;;;;;;1.00;1.00;;;;;;;20.02;46.86;98589.05;;;;-53
2019/11/28 02:28:12;;;;;;;1.00;1.00;;;;;;;20.02;46.84;98594.27;;;;-52
2019/11/28 02:31:12;;;;;;;0.98;0.98;;;;;;;20.02;46.85;98591.31;;;;-52
2019/11/28 02:34:12;;;;;;;1.00;1.00;;;;;;;20.00;46.84;98590.54;;;;-53
2019/11/28 02:37:12;;;;;;;0.91;0.91;;;;;;;20.00;46.84;98586.77;;;;-53
2019/11/28 02:40:12;;;;;;;0.92;0.92;;;;;;;19.99;46.85;98588.70;;;;-53
2019/11/28 02:43:20;;;;;;;0.87;0.87;;;;;;;19.99;46.86;98588.85;;;;-52
2019/11/28 02:46:12;;;;;;;0.89;0.89;;;;;;;19.96;46.88;98584.13;;;;-52
2019/11/28 02:50:12;;;;;;;1.01;1.00;;;;;;;19.96;46.87;98589.82;;;;-52
2019/11/28 02:53:12;;;;;;;0.89;0.89;;;;;;;19.96;46.88;98593.84;;;;-53
2019/11/28 03:02:38;;;;;;;0.90;0.90;;;;;;;19.94;46.91;98601.33;;;;-53
2019/11/28 03:05:38;;;;;;;0.80;0.80;;;;;;;19.93;46.92;98599.98;;;;-52
2019/11/28 03:08:38;;;;;;;0.90;0.90;;;;;;;19.92;46.95;98602.22;;;;-53
2019/11/28 03:11:38;;;;;;;0.90;0.90;;;;;;;19.90;46.93;98603.98;;;;-53
2019/11/28 03:15:37;;;;;;;0.97;0.97;;;;;;;19.90;46.92;98612.09;;;;-53
2019/11/28 03:20:38;;;;;;;0.91;0.91;;;;;;;19.88;46.98;98609.15;;;;-53
2019/11/28 03:23:38;;;;;;;0.98;0.98;;;;;;;19.88;46.92;98602.09;;;;-54
2019/11/28 03:26:37;;;;;;;0.95;0.95;;;;;;;19.88;46.96;98603.87;;;;-53
2019/11/28 03:29:38;;;;;;;0.90;0.90;;;;;;;19.87;46.95;98597.55;;;;-52
2019/11/28 03:32:37;;;;;;;0.85;0.85;;;;;;;19.87;46.91;98603.35;;;;-53
2019/11/28 03:36:37;;;;;;;0.81;0.81;;;;;;;19.85;46.95;98606.23;;;;-53
2019/11/28 03:39:37;;;;;;;0.83;0.83;;;;;;;19.84;46.93;98608.91;;;;-53
2019/11/28 03:45:38;;;;;;;0.82;0.82;;;;;;;19.83;46.99;98601.39;;;;-52
2019/11/28 03:50:38;;;;;;;0.80;0.80;;;;;;;19.82;46.98;98604.96;;;;-52
2019/11/28 03:53:38;;;;;;;0.90;0.90;;;;;;;19.81;46.95;98602.87;;;;-52
2019/11/28 03:56:37;;;;;;;0.90;0.90;;;;;;;19.81;46.95;98603.70;;;;-52
2019/11/28 03:59:37;;;;;;;0.80;0.80;;;;;;;19.80;46.95;98602.58;;;;-53
2019/11/28 04:03:38;;;;;;;0.80;0.80;;;;;;;19.80;46.93;98608.45;;;;-53
2019/11/28 04:06:39;;;;;;;0.81;0.81;;;;;;;19.79;46.97;98599.83;;;;-52
2019/11/28 04:09:37;;;;;;;0.80;0.80;;;;;;;19.78;46.98;98599.05;;;;-53
2019/11/28 04:13:37;;;;;;;0.90;0.90;;;;;;;19.77;46.99;98608.66;;;;-51
2019/11/28 04:19:51;;;;;;;0.90;0.90;;;;;;;19.75;46.97;98611.09;;;;-52
2019/11/28 04:24:38;;;;;;;0.85;0.85;;;;;;;19.74;46.99;98610.91;;;;-53
2019/11/28 04:28:38;;;;;;;0.78;0.78;;;;;;;19.73;46.98;98618.83;;;;-53
2019/11/28 04:32:38;;;;;;;1.23;0.97;;;;;;;19.73;47.00;98619.58;;;;-53
2019/11/28 04:35:38;;;;;;;0.90;0.90;;;;;;;19.72;46.97;98618.72;;;;-53
2019/11/28 04:38:38;;;;;;;0.89;0.89;;;;;;;19.71;46.99;98628.02;;;;-53
2019/11/28 04:43:38;;;;;;;0.89;0.89;;;;;;;19.71;47.03;98637.90;;;;-52
2019/11/28 04:46:38;;;;;;;0.80;0.80;;;;;;;19.72;46.97;98639.42;;;;-53
2019/11/28 04:50:39;;;;;;;0.80;0.80;;;;;;;19.74;47.01;98636.94;;;;-53
2019/11/28 04:53:38;;;;;;;0.97;0.97;;;;;;;19.75;47.02;98641.91;;;;-51
2019/11/28 04:56:38;;;;;;;0.97;0.97;;;;;;;19.76;47.03;98639.21;;;;-52
2019/11/28 05:01:43;;;;;;;0.72;0.72;;;;;;;19.78;47.05;98651.39;;;;-52
2019/11/28 05:04:38;;;;;;;0.84;0.84;;;;;;;19.81;47.12;98651.01;;;;-52
2019/11/28 05:07:38;;;;;;;0.77;0.77;;;;;;;19.84;47.07;98650.11;;;;-53
2019/11/28 05:10:38;;;;;;;0.80;0.80;;;;;;;19.87;47.08;98651.66;;;;-54
2019/11/28 05:13:38;;;;;;;0.89;0.89;;;;;;;19.90;47.07;98654.72;;;;-52
2019/11/28 05:16:38;;;;;;;0.87;0.87;;;;;;;19.93;47.05;98651.41;;;;-52
2019/11/28 05:19:38;;;;;;;0.86;0.86;;;;;;;19.98;47.04;98646.86;;;;-52
2019/11/28 05:22:38;;;;;;;0.80;0.80;;;;;;;20.00;47.08;98647.42;;;;-52
2019/11/28 05:25:38;;;;;;;0.71;0.71;;;;;;;20.03;47.09;98641.77;;;;-53
2019/11/28 05:28:38;;;;;;;0.87;0.87;;;;;;;20.06;47.16;98637.64;;;;-52
2019/11/28 05:31:38;;;;;;;0.70;0.70;;;;;;;20.09;47.16;98638.14;;;;-52
2019/11/28 05:34:38;;;;;;;0.80;0.80;;;;;;;20.12;47.17;98639.28;;;;-52
2019/11/28 05:37:38;;;;;;;0.95;0.95;;;;;;;20.16;47.23;98642.16;;;;-52
2019/11/28 05:40:38;;;;;;;0.73;0.73;;;;;;;20.18;47.16;98640.94;;;;-52
2019/11/28 05:43:38;;;;;;;0.67;0.67;;;;;;;20.21;47.21;98642.25;;;;-52
2019/11/28 05:46:44;;;;;;;0.80;0.80;;;;;;;20.24;47.22;98644.68;;;;-52
2019/11/28 05:49:38;;;;;;;0.85;0.85;;;;;;;20.27;47.19;98649.27;;;;-52
2019/11/28 05:52:38;;;;;;;0.80;0.80;;;;;;;20.29;47.22;98650.73;;;;-52
2019/11/28 05:55:38;;;;;;;0.73;0.73;;;;;;;20.32;47.21;98650.74;;;;-52
2019/11/28 05:58:38;;;;;;;0.81;0.81;;;;;;;20.35;47.20;98642.66;;;;-52
2019/11/28 06:01:38;;;;;;;0.76;0.76;;;;;;;20.38;47.19;98648.73;;;;-52
2019/11/28 06:04:38;;;;;;;0.69;0.69;;;;;;;20.40;47.20;98650.08;;;;-52
2019/11/28 06:07:42;;;;;;;0.79;0.79;;;;;;;20.44;47.17;98655.24;;;;-52
2019/11/28 06:10:38;;;;;;;0.73;0.73;;;;;;;20.46;47.17;98657.84;;;;-53
2019/11/28 06:13:38;;;;;;;0.76;0.76;;;;;;;20.48;47.19;98665.34;;;;-52
2019/11/28 06:16:38;;;;;;;0.80;0.80;;;;;;;20.50;47.10;98665.80;;;;-53
2019/11/28 06:21:38;;;;;;;0.81;0.81;;;;;;;20.54;47.05;98664.98;;;;-53
2019/11/28 06:24:38;;;;;;;0.92;0.92;;;;;;;20.55;47.05;98673.78;;;;-53
2019/11/28 06:28:38;;;;;;;0.84;0.84;;;;;;;20.55;46.97;98675.72;;;;-52
2019/11/28 06:31:38;;;;;;;0.71;0.71;;;;;;;20.57;46.96;98676.75;;;;-53
2019/11/28 06:34:38;;;;;;;1.55;0.91;;;;;;;20.57;46.92;98674.50;;;;-52
2019/11/28 06:37:38;;;;;;;0.81;0.81;;;;;;;20.60;46.92;98685.67;;;;-52
2019/11/28 06:40:38;;;;;;;0.71;0.71;;;;;;;20.61;46.90;98687.12;;;;-53
2019/11/28 06:43:38;;;;;;;0.81;0.80;;;;;;;20.61;46.95;98684.27;;;;-53
2019/11/28 06:46:38;;;;;;;0.89;0.89;;;;;;;20.63;46.90;98692.24;;;;-52
2019/11/28 06:49:38;;;;;;;0.79;0.79;;;;;;;20.64;46.91;98686.06;;;;-52
2019/11/28 06:52:38;;;;;;;0.93;0.93;;;;;;;20.66;46.85;98696.47;;;;-52
2019/11/28 06:55:38;;;;;;;0.81;0.81;;;;;;;20.67;46.86;98689.60;;;;-50
2019/11/28 06:58:38;;;;;;;1.14;0.75;;;;;;;20.67;46.87;98691.78;;;;-50
2019/11/28 07:01:38;;;;;;;0.75;0.75;;;;;;;20.69;46.84;98697.77;;;;-50
2019/11/28 07:05:34;;;;;;;0.80;0.80;;;;;;;20.71;46.82;98691.00;;;;-50
2019/11/28 07:08:38;;;;;;;0.85;0.85;;;;;;;20.73;46.84;98687.73;;;;-50
2019/11/28 07:11:38;;;;;;;0.68;0.68;;;;;;;20.74;46.82;98702.77;;;;-50
2019/11/28 07:17:44;;;;;;;0.80;0.80;;;;;;;20.77;46.81;98694.33;;;;-50
2019/11/28 07:20:37;;;;;;;0.85;0.79;;;;;;;20.78;46.75;98697.85;;;;-50
2019/11/28 07:23:37;;;;;;;0.74;0.71;;;;;;;20.79;46.75;98698.37;;;;-50
2019/11/28 07:26:37;;;;;;;0.91;0.91;;;;;;;20.80;46.75;98703.28;;;;-48
2019/11/28 07:29:37;;;;;;;0.84;0.84;;;;;;;20.81;46.77;98703.02;;;;-48
2019/11/28 07:32:37;;;;;;;0.75;0.75;;;;;;;20.81;46.70;98695.98;;;;-48
2019/11/28 07:35:37;;;;;;;0.80;0.80;;;;;;;20.84;46.70;98705.09;;;;-46
2019/11/28 07:38:37;;;;;;;0.90;0.90;;;;;;;20.87;47.09;98701.00;;;;-47
2019/11/28 07:41:37;;;;;;;0.90;0.90;;;;;;;20.88;47.07;98698.33;;;;-43
2019/11/28 07:44:37;;;;;;;2.93;0.98;;;;;;;20.88;47.28;98704.84;;;;-43
2019/11/28 07:47:37;;;;;;;3.45;0.97;;;;;;;20.89;47.19;98709.39;;;;-49
2019/11/28 07:52:38;;;;;;;1.09;0.78;;;;;;;20.90;47.15;98709.32;;;;-43
2019/11/28 07:55:38;;;;;;;1.14;0.93;;;;;;;20.94;46.58;98711.80;;;;-46
2019/11/28 07:58:37;;;;;;;0.99;0.82;;;;;;;20.94;46.55;98711.89;;;;-46
2019/11/28 08:01:37;;;;;;;6.75;1.00;;;;;;;20.94;46.98;98709.20;;;;-48
2019/11/28 08:04:38;;;;;;;5.69;1.34;;;;;;;20.93;46.39;98708.59;;;;-49
2019/11/28 08:07:37;;;;;;;6.31;1.24;;;;;;;20.96;46.73;98711.30;;;;-43
2019/11/28 08:10:38;;;;;;;3.18;1.10;;;;;;;20.96;46.65;98711.83;;;;-45
2019/11/28 08:13:38;;;;;;;2.54;1.10;;;;;;;20.97;46.48;98714.00;;;;-47
2019/11/28 08:16:37;;;;;;;5.01;1.23;;;;;;;20.99;46.52;98708.59;;;;-43
2019/11/28 08:19:38;;;;;;;2.75;1.33;;;;;;;21.01;46.60;98714.88;;;;-43
2019/11/28 08:22:37;;;;;;;1.52;1.19;;;;;;;21.04;47.04;98709.54;;;;-49
2019/11/28 08:25:37;;;;;;;1.48;1.08;;;;;;;21.06;46.01;98713.59;;;;-47
2019/11/28 08:28:37;;;;;;;1.73;1.15;;;;;;;21.08;45.96;98715.02;;;;-44
2019/11/28 08:31:37;;;;;;;2.79;1.11;;;;;;;21.11;46.36;98717.00;;;;-45
2019/11/28 08:34:37;;;;;;;2.45;1.15;;;;;;;21.11;45.71;98718.84;;;;-47
2019/11/28 08:39:38;;;;;;;1.15;1.00;;;;;;;21.13;45.73;98718.45;;;;-49
2019/11/28 08:42:37;;;;;;;1.63;0.97;;;;;;;21.14;45.60;98711.47;;;;-45
2019/11/28 08:45:37;;;;;;;2.22;1.20;;;;;;;21.15;45.74;98717.80;;;;-42
2019/11/28 08:48:37;;;;;;;2.25;1.20;;;;;;;21.16;45.96;98721.00;;;;-48
2019/11/28 08:51:37;;;;;;;1.75;1.10;;;;;;;21.17;46.26;98717.66;;;;-47
2019/11/28 08:54:38;;;;;;;2.09;1.09;;;;;;;20.98;45.18;98711.42;;;;-46
2019/11/28 08:57:38;;;;;;;3.63;1.29;;;;;;;20.96;45.59;98717.34;;;;-45
2019/11/28 09:00:37;;;;;;;3.13;1.21;;;;;;;21.04;46.72;98720.64;;;;-45
2019/11/28 09:03:37;;;;;;;3.27;1.18;;;;;;;21.09;46.39;98720.59;;;;-47
2019/11/28 09:06:37;;;;;;;4.67;1.20;;;;;;;21.15;46.94;98726.77;;;;-42
2019/11/28 09:09:37;;;;;;;3.91;1.55;;;;;;;21.15;46.42;98733.75;;;;-44
2019/11/28 09:14:38;;;;;;;1.97;1.26;;;;;;;21.16;46.17;98737.43;;;;-44
2019/11/28 09:17:37;;;;;;;4.77;1.19;;;;;;;21.17;46.20;98745.59;;;;-44
2019/11/28 09:20:38;;;;;;;2.82;1.15;;;;;;;21.19;46.35;98757.70;;;;-42
2019/11/28 09:23:46;;;;;;;6.25;1.21;;;;;;;21.18;46.44;98751.73;;;;-46
2019/11/28 09:26:37;;;;;;;5.23;1.20;;;;;;;21.20;46.64;98759.22;;;;-48
2019/11/28 09:29:38;;;;;;;3.32;1.10;;;;;;;21.19;46.57;98763.23;;;;-48
2019/11/28 09:32:37;;;;;;;3.81;1.29;;;;;;;21.19;46.29;98768.00;;;;-48
2019/11/28 09:35:37;;;;;;;1.91;1.13;;;;;;;21.17;45.97;98766.84;;;;-48
2019/11/28 09:38:38;;;;;;;2.75;1.19;;;;;;;21.16;45.89;98778.81;;;;-48
2019/11/28 09:41:38;;;;;;;2.95;1.15;;;;;;;21.14;46.09;98773.86;;;;-46
2019/11/28 09:44:38;;;;;;;4.99;1.21;;;;;;;21.14;46.13;98771.23;;;;-46
2019/11/28 09:47:37;;;;;;;3.99;1.33;;;;;;;21.13;46.01;98767.86;;;;-45
2019/11/28 09:50:37;;;;;;;2.12;1.10;;;;;;;21.12;45.94;98776.02;;;;-45
2019/11/28 09:53:38;;;;;;;1.54;1.01;;;;;;;21.11;45.95;98777.91;;;;-45
2019/11/28 09:56:37;;;;;;;2.18;1.13;;;;;;;21.11;46.00;98773.73;;;;-45
2019/11/28 09:59:38;;;;;;;3.44;1.21;;;;;;;21.11;46.06;98776.51;;;;-43
2019/11/28 10:02:38;;;;;;;4.41;1.25;;;;;;;21.12;46.04;98783.05;;;;-44
2019/11/28 10:05:37;;;;;;;3.14;1.13;;;;;;;21.12;46.20;98783.63;;;;-44
2019/11/28 10:08:37;;;;;;;3.25;1.34;;;;;;;21.13;46.26;98779.72;;;;-44
2019/11/28 10:11:38;;;;;;;1.91;1.09;;;;;;;21.13;46.37;98774.91;;;;-44
2019/11/28 10:14:37;;;;;;;4.04;1.25;;;;;;;21.15;46.48;98775.61;;;;-45
2019/11/28 10:17:37;;;;;;;2.80;1.05;;;;;;;21.13;46.41;98779.70;;;;-46
2019/11/28 10:20:38;;;;;;;2.41;1.12;;;;;;;21.15;46.01;98774.85;;;;-53
2019/11/28 10:23:38;;;;;;;1.35;1.11;;;;;;;21.16;46.24;98774.12;;;;-50
2019/11/28 10:26:37;;;;;;;2.71;1.11;;;;;;;21.17;46.32;98771.27;;;;-50
2019/11/28 10:29:37;;;;;;;2.55;1.22;;;;;;;21.16;46.20;98773.09;;;;-44
2019/11/28 10:32:37;;;;;;;1.34;1.00;;;;;;;21.19;46.03;98776.56;;;;-48
2019/11/28 10:35:38;;;;;;;1.93;1.10;;;;;;;21.18;46.06;98773.37;;;;-48
2019/11/28 10:38:37;;;;;;;1.45;1.08;;;;;;;21.17;46.06;98775.30;;;;-48
2019/11/28 10:42:37;;;;;;;2.67;1.20;;;;;;;21.17;46.26;98772.69;;;;-44
2019/11/28 10:45:37;;;;;;;3.01;1.20;;;;;;;21.18;46.42;98764.14;;;;-43
2019/11/28 10:48:37;;;;;;;3.19;1.30;;;;;;;21.18;46.53;98759.70;;;;-44
2019/11/28 10:51:37;;;;;;;2.15;1.10;;;;;;;21.19;46.62;98762.56;;;;-43
2019/11/28 10:54:38;;;;;;;2.11;1.07;;;;;;;21.20;46.56;98757.02;;;;-46
2019/11/28 10:57:38;;;;;;;2.43;1.11;;;;;;;21.20;46.51;98763.99;;;;-46
2019/11/28 11:00:38;;;;;;;1.13;1.03;;;;;;;21.19;46.50;98755.00;;;;-46
2019/11/28 11:04:37;;;;;;;4.01;1.13;;;;;;;21.14;45.92;98750.52;;;;-44
2019/11/28 11:07:38;;;;;;;5.81;1.29;;;;;;;21.14;45.81;98750.42;;;;-45
2019/11/28 11:10:38;;;;;;;3.47;1.26;;;;;;;21.14;45.73;98752.18;;;;-47
2019/11/28 11:13:38;;;;;;;2.75;1.28;;;;;;;21.14;45.67;98753.44;;;;-43
2019/11/28 11:16:38;;;;;;;2.97;1.25;;;;;;;21.16;45.92;98760.28;;;;-41
2019/11/28 11:19:38;;;;;;;3.20;1.20;;;;;;;21.17;45.82;98761.45;;;;-48
2019/11/28 11:22:37;;;;;;;2.25;1.32;;;;;;;21.12;45.61;98761.47;;;;-45
2019/11/28 11:25:38;;;;;;;2.76;1.30;;;;;;;21.10;45.41;98757.84;;;;-46
2019/11/28 11:30:38;;;;;;;3.93;1.26;;;;;;;21.14;45.66;98769.32;;;;-47
2019/11/28 11:33:38;;;;;;;1.73;1.17;;;;;;;21.14;45.71;98767.38;;;;-47
2019/11/28 11:36:38;;;;;;;4.39;1.10;;;;;;;21.15;45.70;98774.03;;;;-47
2019/11/28 11:39:38;;;;;;;2.71;1.22;;;;;;;21.14;45.71;98774.53;;;;-47
2019/11/28 11:44:37;;;;;;;2.85;1.20;;;;;;;21.14;45.69;98770.16;;;;-47
2019/11/28 11:47:38;;;;;;;1.71;1.12;;;;;;;21.13;45.70;98771.89;;;;-47
2019/11/28 11:50:38;;;;;;;1.53;1.12;;;;;;;21.13;45.68;98770.21;;;;-47
2019/11/28 11:53:38;;;;;;;1.39;1.14;;;;;;;21.13;45.71;98763.59;;;;-47
2019/11/28 11:57:38;;;;;;;3.23;1.40;;;;;;;21.12;45.72;98760.31;;;;-47
2019/11/28 12:00:38;;;;;;;2.81;1.15;;;;;;;21.12;45.71;98754.17;;;;-47
2019/11/28 12:04:38;;;;;;;1.76;1.04;;;;;;;21.10;45.76;98756.95;;;;-46
2019/11/28 12:07:38;;;;;;;1.83;1.18;;;;;;;21.08;45.80;98754.98;;;;-45
2019/11/28 12:10:38;;;;;;;3.46;1.31;;;;;;;21.09;45.96;98753.92;;;;-44
2019/11/28 12:13:38;;;;;;;1.75;1.17;;;;;;;21.10;46.08;98751.97;;;;-46
2019/11/28 12:18:38;;;;;;;1.69;1.15;;;;;;;21.10;46.14;98751.41;;;;-47
2019/11/28 12:22:38;;;;;;;1.48;1.20;;;;;;;21.11;45.93;98744.42;;;;-47
2019/11/28 12:25:37;;;;;;;1.50;1.10;;;;;;;21.11;45.86;98747.55;;;;-47
2019/11/28 12:28:38;;;;;;;2.17;1.21;;;;;;;21.09;45.88;98744.77;;;;-47
2019/11/28 12:31:38;;;;;;;3.66;1.13;;;;;;;21.08;45.85;98747.94;;;;-45
2019/11/28 12:34:38;;;;;;;4.73;1.29;;;;;;;21.09;45.75;98749.95;;;;-45
2019/11/28 12:37:38;;;;;;;1.47;1.10;;;;;;;21.09;45.96;98747.26;;;;-48
2019/11/28 12:40:38;;;;;;;1.99;1.17;;;;;;;21.10;46.02;98755.09;;;;-49
2019/11/28 12:50:03;;;;;;;2.77;1.17;;;;;;;21.12;45.95;98753.36;;;;-43
2019/11/28 12:54:23;;;;;;;2.63;1.20;;;;;;;21.10;45.67;98760.20;;;;-44
2019/11/28 12:58:03;;;;;;;1.79;1.21;;;;;;;21.08;45.50;98758.83;;;;-44
2019/11/28 13:02:03;;;;;;;2.24;1.03;;;;;;;21.08;46.17;98759.16;;;;-43
2019/11/28 13:05:03;;;;;;;2.41;1.17;;;;;;;21.08;46.31;98757.25;;;;-47
2019/11/28 13:08:03;;;;;;;2.41;1.05;;;;;;;21.10;46.37;98785.80;;;;-44
2019/11/28 13:11:03;;;;;;;1.93;1.09;;;;;;;21.11;46.39;98790.42;;;;-44
2019/11/28 13:14:03;;;;;;;2.26;1.20;;;;;;;21.11;46.41;98787.23;;;;-45
2019/11/28 13:17:03;;;;;;;2.02;1.10;;;;;;;21.12;46.39;98787.27;;;;-45
2019/11/28 13:20:03;;;;;;;1.15;1.00;;;;;;;21.12;46.42;98789.17;;;;-44
2019/11/28 13:25:03;;;;;;;3.95;1.09;;;;;;;21.15;46.54;98796.53;;;;-48
2019/11/28 13:28:03;;;;;;;1.42;1.00;;;;;;;21.14;46.23;98797.26;;;;-48
2019/11/28 13:33:03;;;;;;;1.21;1.10;;;;;;;21.13;46.13;98772.81;;;;-48
2019/11/28 13:36:03;;;;;;;1.63;1.08;;;;;;;21.12;46.10;98772.13;;;;-48
2019/11/28 13:39:03;;;;;;;1.46;1.01;;;;;;;21.12;46.10;98766.86;;;;-48
2019/11/28 13:42:03;;;;;;;1.97;0.97;;;;;;;21.11;46.07;98768.95;;;;-48
2019/11/28 13:46:03;;;;;;;2.61;0.96;;;;;;;21.10;46.05;98770.62;;;;-48
2019/11/28 13:49:03;;;;;;;2.41;1.20;;;;;;;21.11;46.03;98780.18;;;;-48
2019/11/28 13:52:03;;;;;;;1.11;1.01;;;;;;;21.10;46.02;98774.72;;;;-48
2019/11/28 13:55:03;;;;;;;1.00;0.97;;;;;;;21.09;46.00;98780.78;;;;-48
2019/11/28 13:58:03;;;;;;;1.99;1.11;;;;;;;21.09;45.99;98770.52;;;;-48
2019/11/28 14:01:03;;;;;;;1.63;0.93;;;;;;;21.08;46.01;98775.97;;;;-48
2019/11/28 14:04:03;;;;;;;1.02;0.96;;;;;;;21.08;46.27;98778.56;;;;-42
2019/11/28 14:07:04;;;;;;;1.67;0.99;;;;;;;21.09;46.42;98780.75;;;;-43
2019/11/28 14:10:03;;;;;;;4.27;1.05;;;;;;;21.10;46.47;98783.69;;;;-45
2019/11/28 14:13:03;;;;;;;1.87;1.09;;;;;;;21.11;46.53;98779.53;;;;-43
2019/11/28 14:16:03;;;;;;;1.70;1.01;;;;;;;21.12;46.52;98782.13;;;;-45
2019/11/28 14:19:03;;;;;;;11.35;1.32;;;;;;;21.14;46.85;98786.52;;;;-45
2019/11/28 14:22:03;;;;;;;3.72;1.07;;;;;;;21.14;46.69;98784.16;;;;-43
2019/11/28 14:25:03;;;;;;;3.30;1.17;;;;;;;21.16;46.69;98792.48;;;;-45
2019/11/28 14:28:03;;;;;;;1.53;0.94;;;;;;;21.17;46.83;98798.13;;;;-45
2019/11/28 14:31:03;;;;;;;1.02;0.92;;;;;;;21.18;46.55;98809.05;;;;-45
2019/11/28 14:34:03;;;;;;;2.51;1.04;;;;;;;21.20;46.60;98813.78;;;;-46
2019/11/28 14:37:03;;;;;;;14.49;1.84;;;;;;;21.20;46.81;98810.24;;;;-43
2019/11/28 14:40:05;;;;;;;5.51;1.49;;;;;;;21.23;47.05;98813.21;;;;-47
2019/11/28 14:43:04;;;;;;;6.43;1.40;;;;;;;21.21;46.95;98807.91;;;;-50
2019/11/28 14:46:03;;;;;;;6.15;1.48;;;;;;;21.22;46.90;98814.30;;;;-48
2019/11/28 14:49:03;;;;;;;4.07;1.60;;;;;;;21.22;46.84;98813.70;;;;-47
2019/11/28 14:52:03;;;;;;;4.93;1.24;;;;;;;21.21;46.81;98812.27;;;;-50
2019/11/28 14:55:03;;;;;;;3.68;1.35;;;;;;;21.22;46.82;98811.68;;;;-51
2019/11/28 14:58:03;;;;;;;3.15;1.27;;;;;;;21.24;46.90;98813.56;;;;-45
2019/11/28 15:01:03;;;;;;;3.85;1.34;;;;;;;21.25;46.96;98818.11;;;;-47
2019/11/28 15:04:03;;;;;;;4.10;1.41;;;;;;;21.26;46.95;98824.76;;;;-46
2019/11/28 15:07:03;;;;;;;5.66;1.23;;;;;;;21.24;46.77;98820.02;;;;-46
2019/11/28 15:10:03;;;;;;;2.93;1.29;;;;;;;21.27;47.10;98823.50;;;;-44
2019/11/28 15:13:03;;;;;;;3.55;1.21;;;;;;;21.26;46.97;98820.80;;;;-45
2019/11/28 15:16:03;;;;;;;2.48;1.30;;;;;;;21.25;46.51;98826.41;;;;-45
2019/11/28 15:19:03;;;;;;;3.67;1.43;;;;;;;21.25;46.49;98830.13;;;;-45
2019/11/28 15:25:03;;;;;;;3.14;1.10;;;;;;;21.24;46.40;98834.55;;;;-45
2019/11/28 15:28:04;;;;;;;1.95;1.10;;;;;;;21.23;46.36;98836.20;;;;-44
2019/11/28 15:31:03;;;;;;;8.86;1.20;;;;;;;21.22;46.70;98829.31;;;;-46
2019/11/28 15:34:03;;;;;;;2.43;1.20;;;;;;;21.22;46.76;98833.17;;;;-44
2019/11/28 15:39:03;;;;;;;1.83;1.15;;;;;;;21.24;46.64;98827.15;;;;-44
2019/11/28 15:42:14;;;;;;;3.54;1.28;;;;;;;21.25;46.38;98826.59;;;;-43
2019/11/28 15:49:04;;;;;;;2.05;1.20;;;;;;;21.27;46.72;98824.33;;;;-44
2019/11/28 15:52:04;;;;;;;2.35;1.05;;;;;;;21.27;46.73;98826.67;;;;-44
2019/11/28 15:55:03;;;;;;;2.13;1.20;;;;;;;21.28;46.83;98826.52;;;;-43
2019/11/28 15:58:03;;;;;;;2.11;1.15;;;;;;;21.28;46.80;98829.38;;;;-45
2019/11/28 16:05:03;;;;;;;3.67;1.16;;;;;;;21.30;46.78;98842.06;;;;-46
2019/11/28 16:09:04;;;;;;;2.21;1.29;;;;;;;21.29;46.80;98844.77;;;;-45
2019/11/28 16:12:03;;;;;;;4.16;1.23;;;;;;;21.31;46.69;98848.63;;;;-44
2019/11/28 16:15:03;;;;;;;1.82;1.03;;;;;;;21.32;46.74;98842.36;;;;-44
2019/11/28 16:19:03;;;;;;;1.43;1.00;;;;;;;21.32;46.71;98855.52;;;;-46
2019/11/28 16:22:03;;;;;;;1.57;0.99;;;;;;;21.32;46.67;98857.30;;;;-49
2019/11/28 16:31:29;;;;;;;2.11;1.29;;;;;;;21.32;46.66;98863.77;;;;-47
2019/11/28 16:34:29;;;;;;;3.00;1.03;;;;;;;21.32;46.70;98876.28;;;;-48
2019/11/28 16:37:29;;;;;;;1.60;1.00;;;;;;;21.31;46.74;98877.09;;;;-43
2019/11/28 16:40:28;;;;;;;3.13;1.13;;;;;;;21.32;46.77;98884.73;;;;-43
2019/11/28 16:43:29;;;;;;;1.79;1.23;;;;;;;21.32;46.78;98878.30;;;;-48
2019/11/28 16:46:29;;;;;;;5.66;1.39;;;;;;;21.32;46.99;98875.94;;;;-47
2019/11/28 16:49:29;;;;;;;5.97;1.28;;;;;;;21.31;46.66;98886.06;;;;-47
2019/11/28 16:52:29;;;;;;;2.63;1.11;;;;;;;21.32;46.62;98894.25;;;;-44
2019/11/28 16:55:29;;;;;;;2.47;1.09;;;;;;;21.32;46.69;98900.38;;;;-43
2019/11/28 16:58:29;;;;;;;2.95;1.17;;;;;;;21.32;46.70;98899.87;;;;-45
2019/11/28 17:01:29;;;;;;;3.59;1.10;;;;;;;21.32;46.48;98903.64;;;;-48
2019/11/28 17:04:29;;;;;;;3.57;1.09;;;;;;;21.31;46.40;98905.88;;;;-48
2019/11/28 17:07:29;;;;;;;1.87;1.09;;;;;;;21.29;46.59;98911.16;;;;-45
2019/11/28 17:10:29;;;;;;;12.89;1.31;;;;;;;21.29;46.44;98916.59;;;;-45
2019/11/28 17:13:30;;;;;;;2.31;1.21;;;;;;;21.27;46.18;98917.94;;;;-46
2019/11/28 17:16:29;;;;;;;1.79;1.10;;;;;;;21.26;46.04;98919.36;;;;-49
2019/11/28 17:20:29;;;;;;;4.12;1.20;;;;;;;21.25;45.90;98919.93;;;;-46
2019/11/28 17:23:29;;;;;;;3.63;1.20;;;;;;;21.23;46.08;98922.42;;;;-47
2019/11/28 17:26:29;;;;;;;4.83;1.21;;;;;;;21.22;46.19;98918.38;;;;-52
2019/11/28 17:29:29;;;;;;;6.45;1.30;;;;;;;21.21;46.20;98922.40;;;;-48
2019/11/28 17:32:30;;;;;;;4.92;1.31;;;;;;;21.22;46.42;98924.84;;;;-43
2019/11/28 17:35:29;;;;;;;4.53;1.30;;;;;;;21.22;46.00;98922.24;;;;-44
2019/11/28 17:38:29;;;;;;;3.53;1.31;;;;;;;21.24;46.29;98915.39;;;;-49
2019/11/28 17:41:29;;;;;;;3.07;1.21;;;;;;;21.26;46.56;98908.70;;;;-45
2019/11/28 17:45:00;;;;;;;2.13;1.16;;;;;;;21.28;46.30;98914.91;;;;-48
2019/11/28 17:48:29;;;;;;;7.07;1.39;;;;;;;21.32;46.46;98910.59;;;;-46
2019/11/28 17:51:29;;;;;;;1.27;1.13;;;;;;;21.36;46.59;98917.59;;;;-48
2019/11/28 17:54:30;;;;;;;2.35;1.02;;;;;;;21.39;46.58;98924.45;;;;-44
2019/11/28 17:57:29;;;;;;;2.71;1.22;;;;;;;21.41;46.91;98926.73;;;;-44
2019/11/28 18:00:29;;;;;;;2.89;1.27;;;;;;;21.40;46.48;98926.98;;;;-45
2019/11/28 18:03:30;;;;;;;1.88;1.04;;;;;;;21.42;46.55;98926.86;;;;-45
2019/11/28 18:06:28;;;;;;;1.59;1.23;;;;;;;21.43;46.48;98927.26;;;;-47
2019/11/28 18:09:29;;;;;;;1.31;1.11;;;;;;;21.45;46.48;98922.66;;;;-47
2019/11/28 18:12:29;;;;;;;1.94;1.20;;;;;;;21.47;46.01;98922.96;;;;-47
2019/11/28 18:15:29;;;;;;;2.15;1.21;;;;;;;21.49;46.75;98923.38;;;;-46
2019/11/28 18:19:28;;;;;;;3.69;1.20;;;;;;;21.51;46.23;98927.51;;;;-47
2019/11/28 18:22:29;;;;;;;1.44;1.10;;;;;;;21.51;46.21;98926.36;;;;-46
2019/11/28 18:25:28;;;;;;;2.15;1.19;;;;;;;21.52;46.16;98925.17;;;;-46
2019/11/28 18:28:28;;;;;;;1.21;1.10;;;;;;;21.52;46.06;98928.13;;;;-46
2019/11/28 18:31:28;;;;;;;2.39;1.23;;;;;;;21.53;46.09;98930.39;;;;-47
2019/11/28 18:34:28;;;;;;;2.72;1.21;;;;;;;21.53;46.09;98935.53;;;;-46
2019/11/28 18:37:28;;;;;;;1.13;1.01;;;;;;;21.53;46.08;98935.95;;;;-47
2019/11/28 18:40:28;;;;;;;1.77;1.07;;;;;;;21.54;46.08;98942.02;;;;-46
2019/11/28 18:43:28;;;;;;;2.17;1.31;;;;;;;21.54;46.06;98942.19;;;;-47
2019/11/28 18:46:28;;;;;;;1.00;1.00;;;;;;;21.55;46.16;98940.42;;;;-46